Time,TemperatureF,DewpointF,PressureIn,WindDirection,WindDirectionDegrees,WindSpeedMPH,WindSpeedGustMPH,Humidity,HourlyPrecipIn,Conditions,Clouds,dailyrainin,SolarRadiationWatts/m^2,SoftwareType,DateUTC
2013-05-21 00:01:00,56.0,40.0,-100.00,WSW,244,1.0,6.0,53,-99.99,,,0.00,0.000000,,2013-05-21 07:01:00,
2013-05-21 00:11:00,56.0,40.0,-100.00,WSW,244,1.0,6.0,53,-99.99,,,0.00,0.000000,,2013-05-21 07:11:00,
2013-05-21 00:31:00,54.0,36.0,-100.00,West,261,1.0,4.0,49,-99.99,,,0.00,0.000000,,2013-05-21 07:31:00,
2013-05-21 00:41:00,54.0,36.0,-100.00,West,261,1.0,4.0,49,-99.99,,,0.00,0.000000,,2013-05-21 07:41:00,
2013-05-21 00:52:00,54.0,36.0,-100.00,West,261,1.0,4.0,49,-99.99,,,0.00,0.000000,,2013-05-21 07:52:00,
2013-05-21 01:01:00,54.0,36.0,-100.00,West,261,1.0,4.0,49,-99.99,,,0.00,0.000000,,2013-05-21 08:01:00,
2013-05-21 01:11:00,54.0,36.0,-100.00,West,261,1.0,4.0,49,-99.99,,,0.00,0.000000,,2013-05-21 08:11:00,
2013-05-21 02:32:00,51.0,38.0,-100.00,SW,234,2.0,8.0,60,-99.99,,,0.00,0.000000,,2013-05-21 09:32:00,
2013-05-21 02:42:00,51.0,38.0,-100.00,SW,234,2.0,8.0,60,-99.99,,,0.00,0.000000,,2013-05-21 09:42:00,
2013-05-21 02:53:00,51.0,38.0,-100.00,SW,234,2.0,8.0,60,-99.99,,,0.00,0.000000,,2013-05-21 09:53:00,
2013-05-21 03:02:00,51.0,38.0,-100.00,SW,234,2.0,8.0,60,-99.99,,,0.00,0.000000,,2013-05-21 10:02:00,
2013-05-21 03:12:00,51.0,38.0,-100.00,SW,234,2.0,8.0,60,-99.99,,,0.00,0.000000,,2013-05-21 10:12:00,
2013-05-21 03:42:00,50.0,40.0,-100.00,SSW,210,2.0,4.0,69,-99.99,,,0.00,0.000000,,2013-05-21 10:42:00,
2013-05-21 03:52:00,50.0,40.0,-100.00,SSW,210,2.0,4.0,69,-99.99,,,0.00,0.000000,,2013-05-21 10:52:00,
2013-05-21 04:02:00,50.0,40.0,-100.00,SSW,210,2.0,4.0,69,-99.99,,,0.00,0.000000,,2013-05-21 11:02:00,
2013-05-21 04:11:00,50.0,40.0,-100.00,SSW,210,2.0,4.0,69,-99.99,,,0.00,0.000000,,2013-05-21 11:11:00,
2013-05-21 04:41:00,50.0,41.0,-100.00,SSW,200,4.0,8.0,70,-99.99,,,0.00,0.000000,,2013-05-21 11:41:00,
2013-05-21 04:52:00,50.0,41.0,-100.00,SSW,200,4.0,8.0,70,-99.99,,,0.00,0.000000,,2013-05-21 11:52:00,
2013-05-21 05:01:00,50.0,41.0,-100.00,SSW,200,4.0,8.0,70,-99.99,,,0.00,0.000000,,2013-05-21 12:01:00,
2013-05-21 05:11:00,50.0,41.0,-100.00,SSW,200,4.0,8.0,70,-99.99,,,0.00,0.000000,,2013-05-21 12:11:00,
2013-05-21 05:41:00,50.0,39.0,-100.00,SSW,212,3.0,9.0,65,-99.99,,,0.00,0.120000,,2013-05-21 12:41:00,
2013-05-21 05:52:00,50.0,39.0,-100.00,SSW,212,3.0,9.0,65,-99.99,,,0.00,0.120000,,2013-05-21 12:52:00,
2013-05-21 06:01:00,50.0,39.0,-100.00,SSW,212,3.0,9.0,65,-99.99,,,0.00,0.120000,,2013-05-21 13:01:00,
2013-05-21 06:11:00,50.0,39.0,-100.00,SSW,212,3.0,9.0,65,-99.99,,,0.00,0.120000,,2013-05-21 13:11:00,
2013-05-21 06:41:00,48.0,41.0,-100.00,SSW,192,2.0,5.0,78,-99.99,,,0.00,15.340000,,2013-05-21 13:41:00,
2013-05-21 06:52:00,48.0,41.0,-100.00,SSW,192,2.0,5.0,78,-99.99,,,0.00,15.340000,,2013-05-21 13:52:00,
2013-05-21 07:01:00,48.0,41.0,-100.00,SSW,192,2.0,5.0,78,-99.99,,,0.00,15.340000,,2013-05-21 14:01:00,
2013-05-21 07:11:00,48.0,41.0,-100.00,SSW,192,2.0,5.0,78,-99.99,,,0.00,15.340000,,2013-05-21 14:11:00,
2013-05-21 07:41:00,48.0,42.0,-100.00,SSW,197,1.0,5.0,81,-99.99,,,0.00,55.549999,,2013-05-21 14:41:00,
2013-05-21 07:52:00,48.0,42.0,-100.00,SSW,197,1.0,5.0,81,-99.99,,,0.00,55.549999,,2013-05-21 14:52:00,
2013-05-21 08:01:00,48.0,42.0,-100.00,SSW,197,1.0,5.0,81,-99.99,,,0.00,55.549999,,2013-05-21 15:01:00,
2013-05-21 08:11:00,48.0,42.0,-100.00,SSW,197,1.0,5.0,81,-99.99,,,0.00,55.549999,,2013-05-21 15:11:00,
2013-05-21 09:42:00,53.0,31.0,-100.00,SW,228,5.0,13.0,43,-99.99,,,0.00,568.659973,,2013-05-21 16:42:00,
2013-05-21 09:52:00,53.0,31.0,-100.00,SW,228,5.0,13.0,43,-99.99,,,0.00,568.659973,,2013-05-21 16:52:00,
2013-05-21 10:02:00,53.0,31.0,-100.00,SW,228,5.0,13.0,43,-99.99,,,0.00,568.659973,,2013-05-21 17:02:00,
2013-05-21 10:11:00,53.0,31.0,-100.00,SW,228,5.0,13.0,43,-99.99,,,0.00,568.659973,,2013-05-21 17:11:00,
2013-05-21 10:43:00,53.0,28.0,-100.00,SW,229,6.0,16.0,38,-99.99,,,0.00,721.729980,,2013-05-21 17:43:00,
2013-05-21 10:52:00,53.0,28.0,-100.00,SW,229,6.0,16.0,38,-99.99,,,0.00,721.729980,,2013-05-21 17:52:00,
2013-05-21 11:01:00,53.0,28.0,-100.00,SW,229,6.0,16.0,38,-99.99,,,0.00,721.729980,,2013-05-21 18:01:00,
2013-05-21 11:11:00,53.0,28.0,-100.00,SW,229,6.0,16.0,38,-99.99,,,0.00,721.729980,,2013-05-21 18:11:00,
2013-05-21 11:42:00,55.0,23.0,-100.00,SW,221,5.0,15.0,29,-99.99,,,0.00,943.710022,,2013-05-21 18:42:00,
2013-05-21 11:52:00,55.0,23.0,-100.00,SW,221,5.0,15.0,29,-99.99,,,0.00,943.710022,,2013-05-21 18:52:00,
2013-05-21 12:01:00,55.0,23.0,-100.00,SW,221,5.0,15.0,29,-99.99,,,0.00,943.710022,,2013-05-21 19:01:00,
2013-05-21 12:11:00,55.0,23.0,-100.00,SW,221,5.0,15.0,29,-99.99,,,0.00,943.710022,,2013-05-21 19:11:00,
2013-05-21 12:31:00,54.0,27.0,-100.00,SW,225,4.0,17.0,35,-99.99,,,0.00,899.539978,,2013-05-21 19:31:00,
2013-05-21 12:41:00,54.0,27.0,-100.00,SW,225,4.0,17.0,35,-99.99,,,0.00,899.539978,,2013-05-21 19:41:00,
2013-05-21 12:52:00,54.0,27.0,-100.00,SW,225,4.0,17.0,35,-99.99,,,0.00,899.539978,,2013-05-21 19:52:00,
2013-05-21 13:03:00,54.0,27.0,-100.00,SW,225,4.0,17.0,35,-99.99,,,0.00,899.539978,,2013-05-21 20:03:00,
2013-05-21 13:11:00,54.0,27.0,-100.00,SW,225,4.0,17.0,35,-99.99,,,0.00,899.539978,,2013-05-21 20:11:00,
2013-05-21 13:32:00,55.0,32.0,-100.00,WNW,284,3.0,9.0,42,-99.99,,,0.00,788.789978,,2013-05-21 20:32:00,
2013-05-21 13:42:00,55.0,32.0,-100.00,WNW,284,3.0,9.0,42,-99.99,,,0.00,788.789978,,2013-05-21 20:42:00,
2013-05-21 13:52:00,55.0,32.0,-100.00,WNW,284,3.0,9.0,42,-99.99,,,0.00,788.789978,,2013-05-21 20:52:00,
2013-05-21 14:01:00,55.0,32.0,-100.00,WNW,284,3.0,9.0,42,-99.99,,,0.00,788.789978,,2013-05-21 21:01:00,
2013-05-21 14:11:00,55.0,32.0,-100.00,WNW,284,3.0,9.0,42,-99.99,,,0.00,788.789978,,2013-05-21 21:11:00,
2013-05-21 14:43:00,54.0,32.0,-100.00,SW,222,7.0,17.0,42,-99.99,,,0.00,885.599976,,2013-05-21 21:43:00,
2013-05-21 14:54:00,54.0,32.0,-100.00,SW,222,7.0,17.0,42,-99.99,,,0.00,885.599976,,2013-05-21 21:54:00,
2013-05-21 15:02:00,54.0,32.0,-100.00,SW,222,7.0,17.0,42,-99.99,,,0.00,885.599976,,2013-05-21 22:02:00,
2013-05-21 15:12:00,54.0,32.0,-100.00,SW,222,7.0,17.0,42,-99.99,,,0.00,885.599976,,2013-05-21 22:12:00,
2013-05-21 15:33:00,52.0,34.0,-100.00,SW,227,6.0,18.0,50,-99.99,,,0.00,858.869995,,2013-05-21 22:33:00,
2013-05-21 15:42:00,52.0,34.0,-100.00,SW,227,6.0,18.0,50,-99.99,,,0.00,858.869995,,2013-05-21 22:42:00,
2013-05-21 15:52:00,52.0,34.0,-100.00,SW,227,6.0,18.0,50,-99.99,,,0.00,858.869995,,2013-05-21 22:52:00,
2013-05-21 16:02:00,52.0,34.0,-100.00,SW,227,6.0,18.0,50,-99.99,,,0.00,858.869995,,2013-05-21 23:02:00,
2013-05-21 16:12:00,52.0,34.0,-100.00,SW,227,6.0,18.0,50,-99.99,,,0.00,858.869995,,2013-05-21 23:12:00,
2013-05-21 16:42:00,48.0,28.0,-100.00,WSW,244,5.0,22.0,46,-99.99,,,0.00,437.679993,,2013-05-21 23:42:00,
2013-05-21 16:52:00,48.0,28.0,-100.00,WSW,244,5.0,22.0,46,-99.99,,,0.00,437.679993,,2013-05-21 23:52:00,
2013-05-21 17:01:00,48.0,28.0,-100.00,WSW,244,5.0,22.0,46,-99.99,,,0.00,437.679993,,2013-05-22 00:01:00,
2013-05-21 17:11:00,48.0,28.0,-100.00,WSW,244,5.0,22.0,46,-99.99,,,0.00,437.679993,,2013-05-22 00:11:00,
2013-05-21 18:32:00,44.0,26.0,-100.00,SSW,207,5.0,16.0,49,-99.99,,,0.00,371.559998,,2013-05-22 01:32:00,
2013-05-21 18:41:00,44.0,26.0,-100.00,SSW,207,5.0,16.0,49,-99.99,,,0.00,371.559998,,2013-05-22 01:41:00,
2013-05-21 18:52:00,44.0,26.0,-100.00,SSW,207,5.0,16.0,49,-99.99,,,0.00,371.559998,,2013-05-22 01:52:00,
2013-05-21 19:01:00,44.0,26.0,-100.00,SSW,207,5.0,16.0,49,-99.99,,,0.00,371.559998,,2013-05-22 02:01:00,
2013-05-21 19:11:00,44.0,26.0,-100.00,SSW,207,5.0,16.0,49,-99.99,,,0.00,371.559998,,2013-05-22 02:11:00,
2013-05-21 19:32:00,41.0,25.0,-100.00,SW,217,5.0,14.0,51,-99.99,,,0.00,66.360001,,2013-05-22 02:32:00,
2013-05-21 19:41:00,41.0,25.0,-100.00,SW,217,5.0,14.0,51,-99.99,,,0.00,66.360001,,2013-05-22 02:41:00,
2013-05-21 19:52:00,41.0,25.0,-100.00,SW,217,5.0,14.0,51,-99.99,,,0.00,66.360001,,2013-05-22 02:52:00,
2013-05-21 20:01:00,41.0,25.0,-100.00,SW,217,5.0,14.0,51,-99.99,,,0.00,66.360001,,2013-05-22 03:01:00,
2013-05-21 20:11:00,41.0,25.0,-100.00,SW,217,5.0,14.0,51,-99.99,,,0.00,66.360001,,2013-05-22 03:11:00,
2013-05-21 20:43:00,40.0,24.0,-100.00,WSW,242,3.0,13.0,52,-99.99,,,0.00,18.360001,,2013-05-22 03:43:00,
2013-05-21 20:53:00,40.0,24.0,-100.00,WSW,242,3.0,13.0,52,-99.99,,,0.00,18.360001,,2013-05-22 03:53:00,
2013-05-21 21:03:00,40.0,24.0,-100.00,WSW,242,3.0,13.0,52,-99.99,,,0.00,18.360001,,2013-05-22 04:03:00,
2013-05-21 21:12:00,40.0,24.0,-100.00,WSW,242,3.0,13.0,52,-99.99,,,0.00,18.360001,,2013-05-22 04:12:00,
2013-05-21 21:42:00,38.0,22.0,-100.00,SW,226,4.0,15.0,51,-99.99,,,0.00,0.120000,,2013-05-22 04:42:00,
2013-05-21 21:53:00,38.0,22.0,-100.00,SW,226,4.0,15.0,51,-99.99,,,0.00,0.120000,,2013-05-22 04:53:00,
2013-05-21 22:02:00,38.0,22.0,-100.00,SW,226,4.0,15.0,51,-99.99,,,0.00,0.120000,,2013-05-22 05:02:00,
2013-05-21 22:11:00,38.0,22.0,-100.00,SW,226,4.0,15.0,51,-99.99,,,0.00,0.120000,,2013-05-22 05:11:00,
2013-05-21 22:31:00,36.0,23.0,-100.00,SW,216,4.0,13.0,58,-99.99,,,0.00,0.000000,,2013-05-22 05:31:00,
2013-05-21 22:42:00,36.0,23.0,-100.00,SW,216,4.0,13.0,58,-99.99,,,0.00,0.000000,,2013-05-22 05:42:00,
2013-05-21 22:52:00,36.0,23.0,-100.00,SW,216,4.0,13.0,58,-99.99,,,0.00,0.000000,,2013-05-22 05:52:00,
2013-05-21 23:01:00,36.0,23.0,-100.00,SW,216,4.0,13.0,58,-99.99,,,0.00,0.000000,,2013-05-22 06:01:00,
2013-05-21 23:11:00,36.0,23.0,-100.00,SW,216,4.0,13.0,58,-99.99,,,0.00,0.000000,,2013-05-22 06:11:00,
2013-05-21 23:42:00,35.0,24.0,-100.00,SSW,213,5.0,14.0,64,-99.99,,,0.00,0.000000,,2013-05-22 06:42:00,
2013-05-21 23:52:00,35.0,24.0,-100.00,SSW,213,5.0,14.0,64,-99.99,,,0.00,0.000000,,2013-05-22 06:52:00,